createdAt,value
2023-07-16T00:00:28.355Z,19.75
2023-07-16T00:01:01.070Z,19.76
2023-07-16T00:01:36.572Z,19.76
2023-07-16T00:02:12.201Z,19.77
2023-07-16T00:02:45.139Z,19.73
2023-07-16T00:03:17.824Z,19.73
2023-07-16T00:03:50.687Z,19.65
2023-07-16T00:04:26.192Z,19.68
2023-07-16T00:04:58.742Z,19.68
2023-07-16T00:05:30.754Z,19.73
2023-07-16T00:06:03.075Z,19.73
2023-07-16T00:06:35.401Z,19.74
2023-07-16T00:07:07.402Z,19.74
2023-07-16T00:07:39.448Z,19.74
2023-07-16T00:08:14.874Z,19.74
2023-07-16T00:08:47.053Z,19.73
2023-07-16T00:09:19.391Z,19.71
2023-07-16T00:09:51.390Z,19.65
2023-07-16T00:10:23.460Z,19.64
2023-07-16T00:10:55.655Z,19.61
2023-07-16T00:11:30.651Z,19.60
2023-07-16T00:12:04.870Z,19.58
2023-07-16T00:12:36.896Z,19.56
2023-07-16T00:13:10.543Z,19.55
2023-07-16T00:13:43.613Z,19.58
2023-07-16T00:14:16.061Z,19.57
2023-07-16T00:14:49.152Z,19.56
2023-07-16T00:15:21.924Z,19.54
2023-07-16T00:15:54.207Z,19.55
2023-07-16T00:16:26.848Z,19.55
2023-07-16T00:16:59.616Z,19.59
2023-07-16T00:17:31.776Z,19.56
2023-07-16T00:18:04.079Z,19.57
2023-07-16T00:18:36.545Z,19.60
2023-07-16T00:19:10.709Z,19.61
2023-07-16T00:19:42.755Z,19.64
2023-07-16T00:20:14.757Z,19.63
2023-07-16T00:20:46.772Z,19.62
2023-07-16T00:21:18.882Z,19.63
2023-07-16T00:21:50.893Z,19.63
2023-07-16T00:22:22.925Z,19.62
2023-07-16T00:22:55.956Z,19.65
2023-07-16T00:23:28.157Z,19.65
2023-07-16T00:24:00.537Z,19.68
2023-07-16T00:24:32.563Z,19.67
2023-07-16T00:25:05.260Z,19.66
2023-07-16T00:25:38.578Z,19.63
2023-07-16T00:26:11.036Z,19.63
2023-07-16T00:26:43.428Z,19.63
2023-07-16T00:27:19.675Z,19.63
2023-07-16T00:27:51.734Z,19.63
2023-07-16T00:28:24.360Z,19.64
2023-07-16T00:28:59.354Z,19.63
2023-07-16T00:29:31.615Z,19.65
2023-07-16T00:30:04.670Z,19.59
2023-07-16T00:30:36.755Z,19.62
2023-07-16T00:31:09.044Z,19.58
2023-07-16T00:31:41.783Z,19.56
2023-07-16T00:32:14.822Z,19.57
2023-07-16T00:32:49.881Z,19.58
2023-07-16T00:33:22.289Z,19.60
2023-07-16T00:33:54.479Z,19.61
2023-07-16T00:34:32.444Z,19.58
2023-07-16T00:35:05.813Z,19.59
2023-07-16T00:35:37.813Z,19.62
2023-07-16T00:36:09.810Z,19.61
2023-07-16T00:36:42.650Z,19.64
2023-07-16T00:37:14.996Z,19.65
2023-07-16T00:37:47.498Z,19.64
2023-07-16T00:38:20.669Z,19.60
2023-07-16T00:38:52.683Z,19.60
2023-07-16T00:39:25.384Z,19.57
2023-07-16T00:39:57.391Z,19.58
2023-07-16T00:40:29.949Z,19.57
2023-07-16T00:41:02.011Z,19.56
2023-07-16T00:41:34.323Z,19.58
2023-07-16T00:42:06.874Z,19.58
2023-07-16T00:42:40.562Z,19.61
2023-07-16T00:43:13.385Z,19.60
2023-07-16T00:43:45.545Z,19.64
2023-07-16T00:44:17.598Z,19.64
2023-07-16T00:44:50.357Z,19.66
2023-07-16T00:45:22.420Z,19.63
2023-07-16T00:45:55.226Z,19.58
2023-07-16T00:46:28.033Z,19.59
2023-07-16T00:47:00.597Z,19.60
2023-07-16T00:47:32.843Z,19.60
2023-07-16T00:48:07.477Z,19.63
2023-07-16T00:48:41.408Z,19.64
2023-07-16T00:49:13.774Z,19.63
2023-07-16T00:49:47.261Z,19.66
2023-07-16T00:50:20.500Z,19.62
2023-07-16T00:50:54.782Z,19.63
2023-07-16T00:51:27.467Z,19.62
2023-07-16T00:52:00.754Z,19.60
2023-07-16T00:52:33.188Z,19.62
2023-07-16T00:53:06.276Z,19.60
2023-07-16T00:53:39.615Z,19.60
2023-07-16T00:54:12.661Z,19.62
2023-07-16T00:54:45.418Z,19.59
2023-07-16T00:55:24.090Z,19.59
2023-07-16T00:55:56.414Z,19.58
2023-07-16T00:56:31.623Z,19.55
2023-07-16T00:57:04.438Z,19.58
2023-07-16T00:57:39.804Z,19.56
2023-07-16T00:58:14.148Z,19.54
2023-07-16T00:58:49.402Z,19.52
2023-07-16T00:59:22.277Z,19.51
2023-07-16T00:59:54.937Z,19.50
2023-07-16T01:00:27.470Z,19.46
2023-07-16T01:01:00.034Z,19.47
2023-07-16T01:01:32.325Z,19.51
2023-07-16T01:02:05.064Z,19.50
2023-07-16T01:02:37.656Z,19.51
2023-07-16T01:03:13.918Z,19.51
2023-07-16T01:03:49.242Z,19.51
2023-07-16T01:04:22.264Z,19.49
2023-07-16T01:04:54.697Z,19.42
2023-07-16T01:05:42.557Z,19.45
2023-07-16T01:06:23.743Z,19.42
2023-07-16T01:07:02.441Z,19.42
2023-07-16T01:07:40.586Z,19.48
2023-07-16T01:08:15.495Z,19.46
2023-07-16T01:08:51.283Z,19.44
2023-07-16T01:09:23.471Z,19.41
2023-07-16T01:09:56.188Z,19.40
2023-07-16T01:10:30.278Z,19.41
2023-07-16T01:11:05.103Z,19.40
2023-07-16T01:11:42.729Z,19.38
2023-07-16T01:12:14.973Z,19.35
2023-07-16T01:12:53.396Z,19.35
2023-07-16T01:13:27.728Z,19.35
2023-07-16T01:14:01.110Z,19.36
2023-07-16T01:14:33.921Z,19.37
2023-07-16T01:15:07.008Z,19.36
2023-07-16T01:15:39.069Z,19.36
2023-07-16T01:16:20.277Z,19.36
2023-07-16T01:16:52.602Z,19.39
2023-07-16T01:17:30.898Z,19.41
2023-07-16T01:18:05.348Z,19.39
2023-07-16T01:18:37.788Z,19.42
2023-07-16T01:19:10.574Z,19.40
2023-07-16T01:19:45.545Z,19.37
2023-07-16T01:20:17.768Z,19.32
2023-07-16T01:20:49.854Z,19.28
2023-07-16T01:21:24.727Z,19.26
2023-07-16T01:22:17.471Z,19.28
2023-07-16T01:23:21.639Z,19.26
2023-07-16T01:24:41.360Z,19.16
2023-07-16T01:25:54.878Z,19.13
2023-07-16T01:26:41.768Z,19.06
2023-07-16T01:27:45.196Z,19.00
2023-07-16T01:28:39.993Z,18.98
2023-07-16T01:29:34.234Z,18.97
2023-07-16T01:30:10.266Z,18.96
2023-07-16T01:30:45.932Z,18.92
2023-07-16T01:31:18.875Z,18.92
2023-07-16T01:31:52.004Z,18.88
2023-07-16T01:32:27.157Z,18.88
2023-07-16T01:33:01.692Z,18.93
2023-07-16T01:33:35.690Z,18.97
2023-07-16T01:34:08.475Z,18.95
2023-07-16T01:34:46.051Z,18.94
2023-07-16T01:35:18.996Z,19.00
2023-07-16T01:35:53.176Z,19.04
2023-07-16T01:36:26.096Z,19.02
2023-07-16T01:36:58.083Z,18.98
2023-07-16T01:37:32.570Z,18.96
2023-07-16T01:38:06.012Z,18.92
2023-07-16T01:38:38.571Z,18.94
2023-07-16T01:39:10.927Z,18.90
2023-07-16T01:39:44.323Z,18.91
2023-07-16T01:40:20.140Z,18.95
2023-07-16T01:40:52.443Z,18.97
2023-07-16T01:41:24.748Z,18.99
2023-07-16T01:41:56.946Z,18.99
2023-07-16T01:42:30.104Z,18.96
2023-07-16T01:43:02.140Z,18.96
2023-07-16T01:43:34.190Z,18.96
2023-07-16T01:44:07.082Z,18.96
2023-07-16T01:44:40.573Z,18.93
2023-07-16T01:45:12.605Z,18.92
2023-07-16T01:45:44.731Z,18.91
2023-07-16T01:46:16.980Z,18.91
2023-07-16T01:47:05.263Z,18.95
2023-07-16T01:47:50.934Z,18.98
2023-07-16T01:48:31.714Z,18.94
2023-07-16T01:49:03.907Z,18.93
2023-07-16T01:49:36.022Z,18.95
2023-07-16T01:50:09.492Z,18.93
2023-07-16T01:50:42.193Z,18.98
2023-07-16T01:51:17.841Z,18.97
2023-07-16T01:51:50.034Z,19.01
2023-07-16T01:52:22.643Z,19.00
2023-07-16T01:52:55.270Z,18.92
2023-07-16T01:53:27.843Z,18.95
2023-07-16T01:54:00.126Z,18.94
2023-07-16T01:54:32.628Z,18.95
2023-07-16T01:55:06.072Z,18.92
2023-07-16T01:55:38.848Z,18.93
2023-07-16T01:56:11.342Z,18.91
2023-07-16T01:56:44.456Z,18.88
2023-07-16T01:57:16.920Z,18.91
2023-07-16T01:57:49.433Z,18.86
2023-07-16T01:58:22.777Z,18.87
2023-07-16T01:59:02.530Z,18.92
2023-07-16T01:59:34.876Z,18.91
2023-07-16T02:00:09.920Z,18.91
2023-07-16T02:00:46.118Z,18.87
2023-07-16T02:01:26.097Z,18.80
2023-07-16T02:01:58.521Z,18.84
2023-07-16T02:02:30.850Z,18.84
2023-07-16T02:03:03.557Z,18.83
2023-07-16T02:03:35.826Z,18.86
2023-07-16T02:04:07.913Z,18.87
2023-07-16T02:04:40.384Z,18.83
2023-07-16T02:05:12.479Z,18.86
2023-07-16T02:05:44.503Z,18.86
2023-07-16T02:06:16.865Z,18.86
2023-07-16T02:06:51.388Z,18.82
2023-07-16T02:07:23.661Z,18.74
2023-07-16T02:07:55.765Z,18.73
2023-07-16T02:08:27.919Z,18.73
2023-07-16T02:08:59.957Z,18.67
2023-07-16T02:09:32.295Z,18.59
2023-07-16T02:10:05.228Z,18.58
2023-07-16T02:10:37.578Z,18.51
2023-07-16T02:11:09.572Z,18.50
2023-07-16T02:11:41.612Z,18.48
2023-07-16T02:12:13.663Z,18.48
2023-07-16T02:12:45.869Z,18.48
2023-07-16T02:13:20.588Z,18.49
2023-07-16T02:13:52.642Z,18.49
2023-07-16T02:14:24.871Z,18.47
2023-07-16T02:14:57.009Z,18.45
2023-07-16T02:15:30.953Z,18.47
2023-07-16T02:16:03.355Z,18.44
2023-07-16T02:16:36.173Z,18.40
2023-07-16T02:17:10.831Z,18.45
2023-07-16T02:17:45.941Z,18.46
2023-07-16T02:18:18.051Z,18.43
2023-07-16T02:18:50.705Z,18.46
2023-07-16T02:19:22.984Z,18.47
2023-07-16T02:19:55.102Z,18.45
2023-07-16T02:20:27.214Z,18.45
2023-07-16T02:20:59.325Z,18.46
2023-07-16T02:21:31.319Z,18.43
2023-07-16T02:22:03.448Z,18.40
2023-07-16T02:22:37.063Z,18.43
2023-07-16T02:23:09.140Z,18.44
2023-07-16T02:23:41.477Z,18.40
2023-07-16T02:24:13.728Z,18.40
2023-07-16T02:24:46.293Z,18.38
2023-07-16T02:25:18.535Z,18.36
2023-07-16T02:25:50.565Z,18.33
2023-07-16T02:26:22.906Z,18.33
2023-07-16T02:26:54.889Z,18.27
2023-07-16T02:27:26.876Z,18.28
2023-07-16T02:27:58.913Z,18.30
2023-07-16T02:28:30.988Z,18.32
2023-07-16T02:29:03.107Z,18.31
2023-07-16T02:29:35.125Z,18.32
2023-07-16T02:30:08.102Z,18.30
2023-07-16T02:30:44.036Z,18.29
2023-07-16T02:31:16.435Z,18.27
2023-07-16T02:31:48.595Z,18.24
2023-07-16T02:32:20.740Z,18.26
2023-07-16T02:32:52.854Z,18.28
2023-07-16T02:33:24.996Z,18.30
2023-07-16T02:33:57.068Z,18.28
2023-07-16T02:34:29.094Z,18.28
2023-07-16T02:35:01.745Z,18.27
2023-07-16T02:35:35.020Z,18.25
2023-07-16T02:36:07.068Z,18.17
2023-07-16T02:36:39.106Z,18.18
2023-07-16T02:37:11.243Z,18.17
2023-07-16T02:37:43.189Z,18.16
2023-07-16T02:38:15.569Z,18.17
2023-07-16T02:38:48.010Z,18.16
2023-07-16T02:39:20.235Z,18.15
2023-07-16T02:39:55.612Z,18.17
2023-07-16T02:40:31.130Z,18.18
2023-07-16T02:41:03.183Z,18.20
2023-07-16T02:41:35.204Z,18.15
2023-07-16T02:42:07.310Z,18.17
2023-07-16T02:42:39.362Z,18.16
2023-07-16T02:43:11.610Z,18.16
2023-07-16T02:43:43.632Z,18.15
2023-07-16T02:44:15.711Z,18.14
2023-07-16T02:44:47.772Z,18.18
2023-07-16T02:45:20.359Z,18.14
2023-07-16T02:45:53.823Z,18.16
2023-07-16T02:46:26.365Z,18.11
2023-07-16T02:46:58.717Z,18.13
2023-07-16T02:47:30.829Z,18.14
2023-07-16T02:48:03.632Z,18.13
2023-07-16T02:48:35.747Z,18.11
2023-07-16T02:49:07.790Z,18.09
2023-07-16T02:49:41.402Z,18.09
2023-07-16T02:50:13.559Z,18.08
2023-07-16T02:50:46.063Z,18.07
2023-07-16T02:51:18.586Z,18.04
2023-07-16T02:51:51.153Z,18.00
2023-07-16T02:52:23.510Z,17.99
2023-07-16T02:52:55.659Z,17.98
2023-07-16T02:53:27.886Z,17.96
2023-07-16T02:54:00.237Z,17.96
2023-07-16T02:54:32.233Z,17.95
2023-07-16T02:55:04.980Z,17.97
2023-07-16T02:55:37.164Z,17.99
2023-07-16T02:56:09.361Z,17.95
2023-07-16T02:56:41.386Z,17.95
2023-07-16T02:57:13.412Z,17.93
2023-07-16T02:57:45.665Z,17.94
2023-07-16T02:58:17.636Z,17.92
2023-07-16T02:58:49.660Z,17.94
2023-07-16T02:59:21.749Z,17.97
2023-07-16T02:59:53.779Z,18.00
2023-07-16T03:00:25.794Z,18.00
2023-07-16T03:00:59.374Z,17.94
2023-07-16T03:01:31.652Z,17.94
2023-07-16T03:02:04.152Z,17.95
2023-07-16T03:02:36.378Z,17.98
2023-07-16T03:03:08.507Z,18.00
2023-07-16T03:03:40.869Z,18.03
2023-07-16T03:04:13.020Z,18.02
2023-07-16T03:04:45.098Z,18.00
2023-07-16T03:05:17.509Z,18.01
2023-07-16T03:05:49.534Z,18.01
2023-07-16T03:06:22.845Z,17.99
2023-07-16T03:06:55.393Z,17.98
2023-07-16T03:07:27.389Z,17.97
2023-07-16T03:07:59.450Z,17.97
2023-07-16T03:08:31.444Z,17.99
2023-07-16T03:09:04.222Z,17.98
2023-07-16T03:09:36.217Z,17.96
2023-07-16T03:10:08.837Z,17.96
2023-07-16T03:10:41.172Z,17.96
2023-07-16T03:11:13.519Z,18.00
2023-07-16T03:11:45.562Z,18.02
2023-07-16T03:12:17.604Z,18.02
2023-07-16T03:12:49.802Z,18.07
2023-07-16T03:13:21.771Z,18.09
2023-07-16T03:13:53.758Z,18.13
2023-07-16T03:14:25.761Z,18.15
2023-07-16T03:14:57.861Z,18.13
2023-07-16T03:15:29.946Z,18.18
2023-07-16T03:16:03.462Z,18.18
2023-07-16T03:16:35.507Z,18.19
2023-07-16T03:17:07.685Z,18.22
2023-07-16T03:17:40.061Z,18.20
2023-07-16T03:18:12.188Z,18.22
2023-07-16T03:18:45.396Z,18.18
2023-07-16T03:19:17.501Z,18.21
2023-07-16T03:19:49.543Z,18.19
2023-07-16T03:20:21.601Z,18.16
2023-07-16T03:20:53.596Z,18.19
2023-07-16T03:21:25.602Z,18.19
2023-07-16T03:21:57.599Z,18.18
2023-07-16T03:22:29.780Z,18.20
2023-07-16T03:23:01.884Z,18.21
2023-07-16T03:23:33.978Z,18.20
2023-07-16T03:24:06.484Z,18.20
2023-07-16T03:24:38.752Z,18.18
2023-07-16T03:25:11.033Z,18.21
2023-07-16T03:25:43.152Z,18.18
2023-07-16T03:26:15.555Z,18.20
2023-07-16T03:26:47.852Z,18.19
2023-07-16T03:27:20.589Z,18.17
2023-07-16T03:27:54.098Z,18.21
2023-07-16T03:28:26.161Z,18.24
2023-07-16T03:28:58.287Z,18.24
2023-07-16T03:29:30.306Z,18.23
2023-07-16T03:30:02.578Z,18.23
2023-07-16T03:30:34.672Z,18.21
2023-07-16T03:31:08.328Z,18.22
2023-07-16T03:31:40.419Z,18.21
2023-07-16T03:32:12.409Z,18.21
2023-07-16T03:32:52.654Z,18.26
2023-07-16T03:33:25.193Z,18.24
2023-07-16T03:33:57.246Z,18.27
2023-07-16T03:34:29.306Z,18.26
2023-07-16T03:35:01.349Z,18.26
2023-07-16T03:35:33.394Z,18.25
2023-07-16T03:36:05.731Z,18.26
2023-07-16T03:36:37.725Z,18.27
2023-07-16T03:37:12.315Z,18.30
2023-07-16T03:37:44.383Z,18.33
2023-07-16T03:38:16.866Z,18.34
2023-07-16T03:38:48.896Z,18.31
2023-07-16T03:39:20.930Z,18.33
2023-07-16T03:39:53.040Z,18.28
2023-07-16T03:40:26.868Z,18.28
2023-07-16T03:40:58.937Z,18.28
2023-07-16T03:41:30.942Z,18.27
2023-07-16T03:42:03.089Z,18.31
2023-07-16T03:42:35.234Z,18.33
2023-07-16T03:43:07.332Z,18.36
2023-07-16T03:43:39.375Z,18.39
2023-07-16T03:44:11.600Z,18.38
2023-07-16T03:44:43.611Z,18.40
2023-07-16T03:45:15.717Z,18.41
2023-07-16T03:45:47.738Z,18.47
2023-07-16T03:46:21.240Z,18.50
2023-07-16T03:46:53.322Z,18.53
2023-07-16T03:47:25.436Z,18.55
2023-07-16T03:47:57.685Z,18.57
2023-07-16T03:48:29.840Z,18.58
2023-07-16T03:49:01.961Z,18.59
2023-07-16T03:49:34.033Z,18.59
2023-07-16T03:50:07.341Z,18.62
2023-07-16T03:50:39.391Z,18.62
2023-07-16T03:51:11.610Z,18.62
2023-07-16T03:51:43.739Z,18.62
2023-07-16T03:52:15.763Z,18.59
2023-07-16T03:52:48.725Z,18.61
2023-07-16T03:53:20.754Z,18.61
2023-07-16T03:53:52.811Z,18.63
2023-07-16T03:54:24.798Z,18.68
2023-07-16T03:54:56.869Z,18.68
2023-07-16T03:55:28.931Z,18.67
2023-07-16T03:56:00.997Z,18.69
2023-07-16T03:56:33.032Z,18.69
2023-07-16T03:57:05.767Z,18.71
2023-07-16T03:57:37.919Z,18.73
2023-07-16T03:58:09.953Z,18.75
2023-07-16T03:58:42.135Z,18.74
2023-07-16T03:59:14.130Z,18.74
2023-07-16T03:59:46.257Z,18.74
2023-07-16T04:00:18.942Z,18.76
2023-07-16T04:00:51.303Z,18.77
2023-07-16T04:01:25.109Z,18.73
2023-07-16T04:01:57.851Z,18.79
2023-07-16T04:02:30.412Z,18.79
2023-07-16T04:03:03.180Z,18.81
2023-07-16T04:03:35.998Z,18.77
2023-07-16T04:04:08.671Z,18.75
2023-07-16T04:04:41.376Z,18.77
2023-07-16T04:05:16.461Z,18.82
2023-07-16T04:05:48.676Z,18.84
2023-07-16T04:06:20.729Z,18.84
2023-07-16T04:06:52.894Z,18.79
2023-07-16T04:07:24.928Z,18.83
2023-07-16T04:07:57.323Z,18.84
2023-07-16T04:08:29.391Z,18.87
2023-07-16T04:09:01.435Z,18.90
2023-07-16T04:09:33.644Z,18.88
2023-07-16T04:10:08.799Z,18.91
2023-07-16T04:10:40.818Z,18.95
2023-07-16T04:11:12.887Z,18.96
2023-07-16T04:11:44.967Z,18.98
2023-07-16T04:12:17.031Z,18.95
2023-07-16T04:12:49.157Z,18.98
2023-07-16T04:13:21.192Z,18.98
2023-07-16T04:13:53.185Z,18.99
2023-07-16T04:14:25.184Z,19.01
2023-07-16T04:14:59.351Z,19.03
2023-07-16T04:15:31.384Z,19.04
2023-07-16T04:16:03.550Z,19.06
2023-07-16T04:16:37.202Z,19.09
2023-07-16T04:17:09.482Z,19.10
2023-07-16T04:17:41.757Z,19.14
2023-07-16T04:18:13.889Z,19.17
2023-07-16T04:18:45.947Z,19.19
2023-07-16T04:19:18.005Z,19.19
2023-07-16T04:19:50.081Z,19.20
2023-07-16T04:20:22.320Z,19.22
2023-07-16T04:20:54.484Z,19.22
2023-07-16T04:21:26.508Z,19.28
2023-07-16T04:21:58.545Z,19.30
2023-07-16T04:22:30.660Z,19.30
2023-07-16T04:23:02.798Z,19.33
2023-07-16T04:23:34.845Z,19.32
2023-07-16T04:24:07.580Z,19.39
2023-07-16T04:24:39.768Z,19.39
2023-07-16T04:25:14.878Z,19.41
2023-07-16T04:25:46.948Z,19.41
2023-07-16T04:26:19.372Z,19.45
2023-07-16T04:26:51.550Z,19.46
2023-07-16T04:27:23.585Z,19.52
2023-07-16T04:27:56.665Z,19.54
2023-07-16T04:28:28.940Z,19.58
2023-07-16T04:29:01.231Z,19.59
2023-07-16T04:29:37.201Z,19.62
2023-07-16T04:30:09.649Z,19.64
2023-07-16T04:30:42.271Z,19.66
2023-07-16T04:31:15.017Z,19.69
2023-07-16T04:31:48.850Z,19.74
2023-07-16T04:32:21.213Z,19.77
2023-07-16T04:32:53.681Z,19.78
2023-07-16T04:33:26.528Z,19.83
2023-07-16T04:33:58.618Z,19.84
2023-07-16T04:34:30.991Z,19.87
2023-07-16T04:35:03.389Z,19.86
2023-07-16T04:35:36.300Z,19.91
2023-07-16T04:36:08.579Z,19.96
2023-07-16T04:36:40.725Z,20.01
2023-07-16T04:37:13.053Z,20.01
2023-07-16T04:37:46.669Z,20.04
2023-07-16T04:38:19.006Z,20.05
2023-07-16T04:38:53.179Z,20.08
2023-07-16T04:39:26.602Z,20.11
2023-07-16T04:39:58.785Z,20.13
2023-07-16T04:40:31.137Z,20.16
2023-07-16T04:41:03.664Z,20.19
2023-07-16T04:41:35.738Z,20.20
2023-07-16T04:42:07.820Z,20.22
2023-07-16T04:42:39.997Z,20.25
2023-07-16T04:43:12.041Z,20.29
2023-07-16T04:43:44.118Z,20.30
2023-07-16T04:44:16.204Z,20.33
2023-07-16T04:44:48.230Z,20.33
2023-07-16T04:45:23.487Z,20.39
2023-07-16T04:45:55.489Z,20.42
2023-07-16T04:46:27.901Z,20.43
2023-07-16T04:47:01.343Z,20.42
2023-07-16T04:47:33.496Z,20.48
2023-07-16T04:48:06.246Z,20.53
2023-07-16T04:48:38.466Z,20.60
2023-07-16T04:49:10.582Z,20.63
2023-07-16T04:49:42.582Z,20.65
2023-07-16T04:50:14.624Z,20.67
2023-07-16T04:50:46.659Z,20.69
2023-07-16T04:51:18.723Z,20.72
2023-07-16T04:51:51.134Z,20.76
2023-07-16T04:52:23.302Z,20.78
2023-07-16T04:52:55.336Z,20.80
2023-07-16T04:53:27.670Z,20.80
2023-07-16T04:54:08.606Z,20.81
2023-07-16T04:54:40.837Z,20.83
2023-07-16T04:55:12.848Z,20.85
2023-07-16T04:55:44.952Z,20.87
2023-07-16T04:56:17.795Z,20.88
2023-07-16T04:56:50.002Z,20.90
2023-07-16T04:57:23.722Z,20.96
2023-07-16T04:57:56.091Z,20.98
2023-07-16T04:58:28.585Z,21.02
2023-07-16T04:59:00.631Z,21.03
2023-07-16T04:59:32.729Z,21.05
2023-07-16T05:00:05.954Z,21.08
2023-07-16T05:00:38.083Z,21.09
2023-07-16T05:01:10.910Z,21.12
2023-07-16T05:01:42.971Z,21.15
2023-07-16T05:02:16.420Z,21.17
2023-07-16T05:02:48.863Z,21.18
2023-07-16T05:03:20.986Z,21.22
2023-07-16T05:03:53.010Z,21.20
2023-07-16T05:04:25.089Z,21.24
2023-07-16T05:04:57.149Z,21.25
2023-07-16T05:05:29.383Z,21.25
2023-07-16T05:06:01.518Z,21.26
2023-07-16T05:06:33.556Z,21.29
2023-07-16T05:07:05.944Z,21.32
2023-07-16T05:07:37.965Z,21.34
2023-07-16T05:08:09.953Z,21.37
2023-07-16T05:08:41.956Z,21.40
2023-07-16T05:09:14.036Z,21.41
2023-07-16T05:09:46.039Z,21.44
2023-07-16T05:10:18.217Z,21.46
2023-07-16T05:10:50.221Z,21.49
2023-07-16T05:11:22.201Z,21.54
2023-07-16T05:11:54.196Z,21.57
2023-07-16T05:12:26.230Z,21.59
2023-07-16T05:12:58.320Z,21.61
2023-07-16T05:13:30.440Z,21.62
2023-07-16T05:14:02.824Z,21.64
2023-07-16T05:14:44.675Z,21.69
2023-07-16T05:15:17.205Z,21.73
2023-07-16T05:15:49.305Z,21.76
2023-07-16T05:16:21.492Z,21.79
2023-07-16T05:16:53.618Z,21.81
2023-07-16T05:17:27.094Z,21.86
2023-07-16T05:17:59.404Z,21.90
2023-07-16T05:18:31.570Z,21.92
2023-07-16T05:19:03.763Z,21.92
2023-07-16T05:19:35.802Z,21.92
2023-07-16T05:20:08.942Z,21.91
2023-07-16T05:20:41.022Z,21.94
2023-07-16T05:21:13.007Z,21.98
2023-07-16T05:21:45.052Z,22.00
2023-07-16T05:22:17.219Z,22.02
2023-07-16T05:22:49.343Z,22.09
2023-07-16T05:23:21.549Z,22.11
2023-07-16T05:23:53.576Z,22.11
2023-07-16T05:24:25.592Z,22.16
2023-07-16T05:24:57.621Z,22.21
2023-07-16T05:25:32.303Z,22.25
2023-07-16T05:26:04.772Z,22.27
2023-07-16T05:26:36.939Z,22.31
2023-07-16T05:27:09.040Z,22.33
2023-07-16T05:27:41.031Z,22.37
2023-07-16T05:28:13.178Z,22.42
2023-07-16T05:28:45.185Z,22.45
2023-07-16T05:29:17.217Z,22.47
2023-07-16T05:29:49.261Z,22.54
2023-07-16T05:30:21.446Z,22.55
2023-07-16T05:30:59.503Z,22.54
2023-07-16T05:31:31.717Z,22.54
2023-07-16T05:32:04.524Z,22.54
2023-07-16T05:32:38.159Z,22.59
2023-07-16T05:33:10.816Z,22.63
2023-07-16T05:33:42.856Z,22.66
2023-07-16T05:34:14.843Z,22.70
2023-07-16T05:34:46.875Z,22.70
2023-07-16T05:35:18.966Z,22.65
2023-07-16T05:35:51.019Z,22.63
2023-07-16T05:36:23.160Z,22.71
2023-07-16T05:36:55.876Z,22.75
2023-07-16T05:37:28.032Z,22.79
2023-07-16T05:37:59.997Z,22.84
2023-07-16T05:38:32.032Z,22.83
2023-07-16T05:39:04.308Z,22.85
2023-07-16T05:39:36.334Z,22.87
2023-07-16T05:40:09.096Z,22.84
2023-07-16T05:40:41.146Z,22.89
2023-07-16T05:41:13.210Z,22.87
2023-07-16T05:41:45.203Z,22.88
2023-07-16T05:42:17.207Z,22.90
2023-07-16T05:42:49.423Z,22.94
2023-07-16T05:43:21.392Z,23.02
2023-07-16T05:43:53.430Z,23.08
2023-07-16T05:44:25.765Z,23.06
2023-07-16T05:44:57.940Z,23.06
2023-07-16T05:45:30.647Z,23.06
2023-07-16T05:46:02.780Z,23.04
2023-07-16T05:46:34.889Z,23.11
2023-07-16T05:47:07.169Z,23.13
2023-07-16T05:47:40.655Z,23.13
2023-07-16T05:48:12.788Z,23.17
2023-07-16T05:48:45.335Z,23.07
2023-07-16T05:49:17.607Z,23.06
2023-07-16T05:49:50.295Z,23.10
2023-07-16T05:50:22.340Z,23.18
2023-07-16T05:50:54.330Z,23.24
2023-07-16T05:51:26.389Z,23.23
2023-07-16T05:51:58.519Z,23.24
2023-07-16T05:52:31.005Z,23.30
2023-07-16T05:53:03.129Z,23.37
2023-07-16T05:53:35.128Z,23.48
2023-07-16T05:54:07.244Z,23.56
2023-07-16T05:54:39.330Z,23.64
2023-07-16T05:55:11.367Z,23.57
2023-07-16T05:55:43.785Z,23.67
2023-07-16T05:56:16.092Z,23.73
2023-07-16T05:56:48.506Z,23.78
2023-07-16T05:57:20.488Z,23.85
2023-07-16T05:57:52.849Z,24.00
2023-07-16T05:58:24.978Z,24.12
2023-07-16T05:58:57.137Z,24.19
2023-07-16T05:59:29.200Z,24.19
2023-07-16T06:00:01.234Z,24.27
2023-07-16T06:00:33.357Z,24.31
2023-07-16T06:01:05.471Z,24.37
2023-07-16T06:01:37.570Z,24.44
2023-07-16T06:02:09.663Z,24.49
2023-07-16T06:02:43.337Z,24.55
2023-07-16T06:03:15.488Z,24.56
2023-07-16T06:03:50.731Z,24.46
2023-07-16T06:04:22.707Z,24.35
2023-07-16T06:04:54.857Z,24.40
2023-07-16T06:05:26.873Z,24.48
2023-07-16T06:05:58.971Z,24.61
2023-07-16T06:06:31.812Z,24.65
2023-07-16T06:07:04.353Z,24.75
2023-07-16T06:07:36.410Z,24.79
2023-07-16T06:08:08.405Z,24.83
2023-07-16T06:08:40.424Z,24.98
2023-07-16T06:09:12.451Z,25.08
2023-07-16T06:09:44.915Z,24.97
2023-07-16T06:10:17.632Z,25.09
2023-07-16T06:10:50.070Z,25.16
2023-07-16T06:11:22.109Z,25.22
2023-07-16T06:11:54.329Z,25.31
2023-07-16T06:12:26.679Z,25.29
2023-07-16T06:12:58.954Z,25.37
2023-07-16T06:13:31.043Z,25.41
2023-07-16T06:14:03.056Z,25.39
2023-07-16T06:14:35.220Z,25.55
2023-07-16T06:15:08.158Z,25.51
2023-07-16T06:15:40.218Z,25.41
2023-07-16T06:16:12.258Z,25.54
2023-07-16T06:16:44.416Z,25.47
2023-07-16T06:17:16.446Z,25.45
2023-07-16T06:17:49.947Z,25.39
2023-07-16T06:18:22.234Z,25.52
2023-07-16T06:18:54.345Z,25.64
2023-07-16T06:19:26.369Z,25.65
2023-07-16T06:19:58.417Z,25.88
2023-07-16T06:20:30.505Z,25.92
2023-07-16T06:21:02.941Z,25.87
2023-07-16T06:21:35.128Z,25.83
2023-07-16T06:22:07.203Z,25.82
2023-07-16T06:22:39.323Z,25.81
2023-07-16T06:23:11.556Z,25.93
2023-07-16T06:23:43.972Z,26.10
2023-07-16T06:24:17.311Z,26.09
2023-07-16T06:24:49.439Z,26.20
2023-07-16T06:25:21.495Z,26.29
2023-07-16T06:25:55.822Z,26.24
2023-07-16T06:26:27.815Z,26.43
2023-07-16T06:27:00.381Z,26.52
2023-07-16T06:27:32.407Z,26.55
2023-07-16T06:28:05.153Z,26.43
2023-07-16T06:28:37.213Z,26.40
2023-07-16T06:29:09.233Z,26.51
2023-07-16T06:29:41.338Z,26.61
2023-07-16T06:30:13.446Z,26.63
2023-07-16T06:30:45.493Z,26.68
2023-07-16T06:31:17.648Z,26.64
2023-07-16T06:31:59.739Z,26.69
2023-07-16T06:32:31.994Z,26.77
2023-07-16T06:33:05.628Z,26.79
2023-07-16T06:33:37.647Z,26.83
2023-07-16T06:34:09.723Z,26.91
2023-07-16T06:34:41.724Z,26.85
2023-07-16T06:35:13.762Z,27.04
2023-07-16T06:35:46.415Z,27.02
2023-07-16T06:36:18.630Z,27.06
2023-07-16T06:36:51.013Z,26.98
2023-07-16T06:37:23.055Z,27.04
2023-07-16T06:37:55.166Z,27.06
2023-07-16T06:38:29.762Z,26.83
2023-07-16T06:39:02.164Z,26.99
2023-07-16T06:39:34.212Z,27.18
2023-07-16T06:40:07.589Z,27.37
2023-07-16T06:40:39.586Z,27.45
2023-07-16T06:41:11.968Z,27.53
2023-07-16T06:41:44.207Z,27.64
2023-07-16T06:42:16.225Z,27.53
2023-07-16T06:42:48.463Z,27.64
2023-07-16T06:43:26.300Z,27.77
2023-07-16T06:43:58.341Z,27.74
2023-07-16T06:44:30.396Z,27.71
2023-07-16T06:45:02.667Z,27.80
2023-07-16T06:45:34.943Z,27.69
2023-07-16T06:46:07.074Z,27.92
2023-07-16T06:46:39.280Z,27.74
2023-07-16T06:47:11.375Z,27.58
2023-07-16T06:47:43.453Z,27.63
2023-07-16T06:48:16.881Z,27.77
2023-07-16T06:48:48.867Z,27.97
2023-07-16T06:49:24.108Z,27.94
2023-07-16T06:49:56.084Z,28.09
2023-07-16T06:50:28.227Z,28.03
2023-07-16T06:51:00.294Z,28.14
2023-07-16T06:51:32.365Z,28.23
2023-07-16T06:52:05.069Z,28.27
2023-07-16T06:52:37.099Z,28.27
2023-07-16T06:53:09.155Z,28.20
2023-07-16T06:53:41.271Z,28.12
2023-07-16T06:54:13.305Z,28.20
2023-07-16T06:54:45.350Z,28.05
2023-07-16T06:55:17.522Z,27.98
2023-07-16T06:55:50.292Z,28.27
2023-07-16T06:56:22.304Z,28.20
2023-07-16T06:56:55.038Z,27.89
2023-07-16T06:57:27.070Z,27.87
2023-07-16T06:57:59.130Z,28.20
2023-07-16T06:58:38.179Z,28.24
2023-07-16T06:59:12.260Z,28.47
2023-07-16T06:59:51.579Z,28.61
2023-07-16T07:00:27.073Z,28.56
2023-07-16T07:01:02.219Z,28.48
2023-07-16T07:01:34.413Z,28.62
2023-07-16T07:02:07.305Z,28.80
2023-07-16T07:02:39.371Z,28.79
2023-07-16T07:03:11.627Z,28.76
2023-07-16T07:03:45.103Z,28.80
2023-07-16T07:04:17.237Z,28.89
2023-07-16T07:04:49.355Z,28.80
2023-07-16T07:05:21.417Z,28.61
2023-07-16T07:05:53.446Z,28.67
2023-07-16T07:06:26.082Z,28.63